sensor_id;sensor_type;location;lat;lon;timestamp;pressure;altitude;pressure_sealevel;temperature;humidity
77954;BME280;67151;52.544;6.034;2023-10-09T00:00:06;101910;;;23.1;50.9
77954;BME280;67151;52.544;6.034;2023-10-09T00:00:21;101910;;;23;50.9
77954;BME280;67151;52.544;6.034;2023-10-09T00:00:36;101920;;;23.1;51
77954;BME280;67151;52.544;6.034;2023-10-09T00:00:51;101920;;;23.1;50.9
77954;BME280;67151;52.544;6.034;2023-10-09T00:01:06;101920;;;23.1;50.9
77954;BME280;67151;52.544;6.034;2023-10-09T00:01:21;101910;;;23.1;50.9
77954;BME280;67151;52.544;6.034;2023-10-09T00:01:36;101910;;;23.1;50.9
77954;BME280;67151;52.544;6.034;2023-10-09T00:01:51;101920;;;23.1;50.9
77954;BME280;67151;52.544;6.034;2023-10-09T00:02:06;101920;;;23.1;51.1
77954;BME280;67151;52.544;6.034;2023-10-09T00:02:21;101920;;;23;51
77954;BME280;67151;52.544;6.034;2023-10-09T00:02:36;101910;;;23.1;50.9
77954;BME280;67151;52.544;6.034;2023-10-09T00:02:51;101910;;;23.1;50.9
77954;BME280;67151;52.544;6.034;2023-10-09T00:03:06;101910;;;23.1;51.1
77954;BME280;67151;52.544;6.034;2023-10-09T00:03:21;101910;;;23.1;50.9
77954;BME280;67151;52.544;6.034;2023-10-09T00:03:36;101910;;;23.1;50.9
77954;BME280;67151;52.544;6.034;2023-10-09T00:03:51;101910;;;23.1;50.9
77954;BME280;67151;52.544;6.034;2023-10-09T00:04:06;101910;;;23.1;50.9
77954;BME280;67151;52.544;6.034;2023-10-09T00:04:21;101910;;;23;51
77954;BME280;67151;52.544;6.034;2023-10-09T00:04:36;101910;;;23.1;51
77954;BME280;67151;52.544;6.034;2023-10-09T00:04:51;101910;;;23.1;50.9
77954;BME280;67151;52.544;6.034;2023-10-09T00:05:06;101910;;;23.1;50.9
77954;BME280;67151;52.544;6.034;2023-10-09T00:05:21;101910;;;23.1;50.9
77954;BME280;67151;52.544;6.034;2023-10-09T00:05:36;101910;;;23.1;50.9
77954;BME280;67151;52.544;6.034;2023-10-09T00:05:51;101910;;;23.1;50.9
77954;BME280;67151;52.544;6.034;2023-10-09T00:06:06;101920;;;23.1;50.9
77954;BME280;67151;52.544;6.034;2023-10-09T00:06:21;101920;;;23;50.9
77954;BME280;67151;52.544;6.034;2023-10-09T00:06:36;101920;;;23.1;50.9
77954;BME280;67151;52.544;6.034;2023-10-09T00:06:51;101920;;;23.1;50.8
77954;BME280;67151;52.544;6.034;2023-10-09T00:07:06;101910;;;23.1;50.9
77954;BME280;67151;52.544;6.034;2023-10-09T00:07:21;101910;;;23.1;50.9
77954;BME280;67151;52.544;6.034;2023-10-09T00:07:36;101910;;;23.1;50.9
77954;BME280;67151;52.544;6.034;2023-10-09T00:07:51;101910;;;23;50.9
77954;BME280;67151;52.544;6.034;2023-10-09T00:08:06;101910;;;23;51
77954;BME280;67151;52.544;6.034;2023-10-09T00:08:21;101920;;;23;51
77954;BME280;67151;52.544;6.034;2023-10-09T00:08:36;101920;;;23;51
77954;BME280;67151;52.544;6.034;2023-10-09T00:08:51;101910;;;23;51
77954;BME280;67151;52.544;6.034;2023-10-09T00:09:06;101910;;;23;51.4
77954;BME280;67151;52.544;6.034;2023-10-09T00:09:21;101920;;;23.1;51.1
77954;BME280;67151;52.544;6.034;2023-10-09T00:09:37;101910;;;23;51.1
77954;BME280;67151;52.544;6.034;2023-10-09T00:09:51;101910;;;23;51.1
77954;BME280;67151;52.544;6.034;2023-10-09T00:10:06;101920;;;23.1;51
77954;BME280;67151;52.544;6.034;2023-10-09T00:10:21;101910;;;23;51
77954;BME280;67151;52.544;6.034;2023-10-09T00:10:36;101910;;;23;51
77954;BME280;67151;52.544;6.034;2023-10-09T00:10:51;101910;;;23;51
77954;BME280;67151;52.544;6.034;2023-10-09T00:11:06;101910;;;23.1;51
77954;BME280;67151;52.544;6.034;2023-10-09T00:11:21;101910;;;23.1;50.9
77954;BME280;67151;52.544;6.034;2023-10-09T00:11:36;101910;;;23.1;51.1
77954;BME280;67151;52.544;6.034;2023-10-09T00:11:51;101910;;;23.1;51.2
77954;BME280;67151;52.544;6.034;2023-10-09T00:12:06;101900;;;23.1;51.1
77954;BME280;67151;52.544;6.034;2023-10-09T00:12:21;101910;;;23.1;51
77954;BME280;67151;52.544;6.034;2023-10-09T00:12:36;101910;;;23.1;50.9
77954;BME280;67151;52.544;6.034;2023-10-09T00:12:51;101910;;;23.1;50.9
77954;BME280;67151;52.544;6.034;2023-10-09T00:13:06;101910;;;23.1;50.9
77954;BME280;67151;52.544;6.034;2023-10-09T00:13:21;101900;;;23.1;50.9
77954;BME280;67151;52.544;6.034;2023-10-09T00:13:36;101910;;;23.1;50.9
77954;BME280;67151;52.544;6.034;2023-10-09T00:13:51;101910;;;23.1;50.9
77954;BME280;67151;52.544;6.034;2023-10-09T00:14:06;101910;;;23;51.7
77954;BME280;67151;52.544;6.034;2023-10-09T00:14:21;101900;;;23;51.2
77954;BME280;67151;52.544;6.034;2023-10-09T00:14:36;101900;;;23;51.2
77954;BME280;67151;52.544;6.034;2023-10-09T00:14:51;101910;;;23;51
77954;BME280;67151;52.544;6.034;2023-10-09T00:15:06;101900;;;23;51
77954;BME280;67151;52.544;6.034;2023-10-09T00:15:21;101900;;;23;51
77954;BME280;67151;52.544;6.034;2023-10-09T00:15:36;101900;;;23.1;51
77954;BME280;67151;52.544;6.034;2023-10-09T00:15:51;101900;;;23.1;50.9
77954;BME280;67151;52.544;6.034;2023-10-09T00:16:06;101900;;;23.1;51
77954;BME280;67151;52.544;6.034;2023-10-09T00:16:21;101900;;;23.1;51.1
77954;BME280;67151;52.544;6.034;2023-10-09T00:16:36;101900;;;23.1;51
77954;BME280;67151;52.544;6.034;2023-10-09T00:16:51;101900;;;23.1;50.9
77954;BME280;67151;52.544;6.034;2023-10-09T00:17:06;101900;;;23;51
77954;BME280;67151;52.544;6.034;2023-10-09T00:17:21;101900;;;23;51.1
77954;BME280;67151;52.544;6.034;2023-10-09T00:17:36;101910;;;23;51.1
77954;BME280;67151;52.544;6.034;2023-10-09T00:17:51;101900;;;23;51
77954;BME280;67151;52.544;6.034;2023-10-09T00:18:06;101900;;;23;51.3
77954;BME280;67151;52.544;6.034;2023-10-09T00:18:21;101900;;;23;51.1
77954;BME280;67151;52.544;6.034;2023-10-09T00:18:36;101900;;;23.1;51
77954;BME280;67151;52.544;6.034;2023-10-09T00:18:51;101900;;;23;50.9
77954;BME280;67151;52.544;6.034;2023-10-09T00:19:06;101900;;;23.1;50.9
77954;BME280;67151;52.544;6.034;2023-10-09T00:19:21;101890;;;23.1;50.9
77954;BME280;67151;52.544;6.034;2023-10-09T00:19:36;101900;;;23.1;50.9
77954;BME280;67151;52.544;6.034;2023-10-09T00:19:51;101900;;;23.1;50.9
77954;BME280;67151;52.544;6.034;2023-10-09T00:20:06;101890;;;23;51
77954;BME280;67151;52.544;6.034;2023-10-09T00:20:21;101900;;;23;51.1
77954;BME280;67151;52.544;6.034;2023-10-09T00:20:36;101910;;;23.1;51
77954;BME280;67151;52.544;6.034;2023-10-09T00:20:51;101900;;;23.1;50.9
77954;BME280;67151;52.544;6.034;2023-10-09T00:21:06;101900;;;23.1;50.9
77954;BME280;67151;52.544;6.034;2023-10-09T00:21:21;101890;;;23.1;50.9
77954;BME280;67151;52.544;6.034;2023-10-09T00:21:36;101900;;;23.1;50.9
77954;BME280;67151;52.544;6.034;2023-10-09T00:21:51;101890;;;23.1;50.9
77954;BME280;67151;52.544;6.034;2023-10-09T00:22:06;101890;;;23.1;50.9
77954;BME280;67151;52.544;6.034;2023-10-09T00:22:21;101900;;;23.1;50.9
77954;BME280;67151;52.544;6.034;2023-10-09T00:22:36;101890;;;23.1;50.9
77954;BME280;67151;52.544;6.034;2023-10-09T00:22:51;101890;;;23.1;50.9
77954;BME280;67151;52.544;6.034;2023-10-09T00:23:06;101890;;;23.1;50.9
77954;BME280;67151;52.544;6.034;2023-10-09T00:23:21;101890;;;23.1;50.9
77954;BME280;67151;52.544;6.034;2023-10-09T00:23:36;101890;;;23;51
77954;BME280;67151;52.544;6.034;2023-10-09T00:23:51;101900;;;23;51
77954;BME280;67151;52.544;6.034;2023-10-09T00:24:06;101890;;;23.1;50.9
77954;BME280;67151;52.544;6.034;2023-10-09T00:24:21;101900;;;23.1;50.9
77954;BME280;67151;52.544;6.034;2023-10-09T00:24:36;101890;;;23.1;50.9
77954;BME280;67151;52.544;6.034;2023-10-09T00:24:51;101890;;;23.1;50.9
77954;BME280;67151;52.544;6.034;2023-10-09T00:25:06;101890;;;23;51
77954;BME280;67151;52.544;6.034;2023-10-09T00:25:21;101890;;;23;51
77954;BME280;67151;52.544;6.034;2023-10-09T00:25:36;101890;;;23;51
77954;BME280;67151;52.544;6.034;2023-10-09T00:25:51;101890;;;23;51
77954;BME280;67151;52.544;6.034;2023-10-09T00:26:06;101890;;;23;51
77954;BME280;67151;52.544;6.034;2023-10-09T00:26:21;101890;;;23;50.9
77954;BME280;67151;52.544;6.034;2023-10-09T00:26:36;101900;;;23.1;50.9
77954;BME280;67151;52.544;6.034;2023-10-09T00:26:51;101890;;;23.1;50.9
77954;BME280;67151;52.544;6.034;2023-10-09T00:27:06;101900;;;23.1;50.9
77954;BME280;67151;52.544;6.034;2023-10-09T00:27:21;101900;;;23.1;51
77954;BME280;67151;52.544;6.034;2023-10-09T00:27:37;101900;;;23;51
77954;BME280;67151;52.544;6.034;2023-10-09T00:27:51;101900;;;23;51
77954;BME280;67151;52.544;6.034;2023-10-09T00:28:06;101890;;;23;51
77954;BME280;67151;52.544;6.034;2023-10-09T00:28:21;101890;;;23;51.1
77954;BME280;67151;52.544;6.034;2023-10-09T00:28:36;101890;;;23;51.2
77954;BME280;67151;52.544;6.034;2023-10-09T00:28:51;101890;;;23;51.1
77954;BME280;67151;52.544;6.034;2023-10-09T00:29:06;101900;;;23;50.9
77954;BME280;67151;52.544;6.034;2023-10-09T00:29:21;101900;;;23;51
77954;BME280;67151;52.544;6.034;2023-10-09T00:29:36;101880;;;23;50.9
77954;BME280;67151;52.544;6.034;2023-10-09T00:29:51;101890;;;23;50.9
77954;BME280;67151;52.544;6.034;2023-10-09T00:30:06;101890;;;23.1;50.9
77954;BME280;67151;52.544;6.034;2023-10-09T00:30:21;101890;;;23;50.9
77954;BME280;67151;52.544;6.034;2023-10-09T00:30:40;101890;;;23;50.9
77954;BME280;67151;52.544;6.034;2023-10-09T00:30:51;101890;;;23.1;50.9
77954;BME280;67151;52.544;6.034;2023-10-09T00:31:06;101890;;;23;50.9
77954;BME280;67151;52.544;6.034;2023-10-09T00:31:21;101890;;;23;51
77954;BME280;67151;52.544;6.034;2023-10-09T00:31:36;101890;;;23.1;50.9
77954;BME280;67151;52.544;6.034;2023-10-09T00:31:51;101880;;;23;51
77954;BME280;67151;52.544;6.034;2023-10-09T00:32:06;101900;;;23;51
77954;BME280;67151;52.544;6.034;2023-10-09T00:32:21;101890;;;23;51
77954;BME280;67151;52.544;6.034;2023-10-09T00:32:36;101880;;;23.1;50.9
77954;BME280;67151;52.544;6.034;2023-10-09T00:32:51;101890;;;23;51
77954;BME280;67151;52.544;6.034;2023-10-09T00:33:06;101890;;;23;50.9
77954;BME280;67151;52.544;6.034;2023-10-09T00:33:21;101890;;;23;51.2
77954;BME280;67151;52.544;6.034;2023-10-09T00:33:36;101890;;;23;51.2
77954;BME280;67151;52.544;6.034;2023-10-09T00:33:51;101880;;;23.1;51
77954;BME280;67151;52.544;6.034;2023-10-09T00:34:06;101880;;;23;51
77954;BME280;67151;52.544;6.034;2023-10-09T00:34:21;101890;;;23.1;50.9
77954;BME280;67151;52.544;6.034;2023-10-09T00:34:36;101890;;;23;50.9
77954;BME280;67151;52.544;6.034;2023-10-09T00:34:51;101890;;;23;50.9
77954;BME280;67151;52.544;6.034;2023-10-09T00:35:06;101880;;;23;50.9
77954;BME280;67151;52.544;6.034;2023-10-09T00:35:21;101890;;;23.1;50.9
77954;BME280;67151;52.544;6.034;2023-10-09T00:35:36;101880;;;23;51
77954;BME280;67151;52.544;6.034;2023-10-09T00:35:51;101890;;;23.1;50.9
77954;BME280;67151;52.544;6.034;2023-10-09T00:36:06;101890;;;23.1;51
77954;BME280;67151;52.544;6.034;2023-10-09T00:36:21;101880;;;23;50.9
77954;BME280;67151;52.544;6.034;2023-10-09T00:36:36;101890;;;23;51
77954;BME280;67151;52.544;6.034;2023-10-09T00:36:51;101890;;;23.1;50.9
77954;BME280;67151;52.544;6.034;2023-10-09T00:37:06;101880;;;23;50.9
77954;BME280;67151;52.544;6.034;2023-10-09T00:37:21;101880;;;23;51
77954;BME280;67151;52.544;6.034;2023-10-09T00:37:36;101870;;;23;51
77954;BME280;67151;52.544;6.034;2023-10-09T00:37:51;101870;;;23;51
77954;BME280;67151;52.544;6.034;2023-10-09T00:38:06;101870;;;23;50.9
77954;BME280;67151;52.544;6.034;2023-10-09T00:38:21;101880;;;23.1;50.9
77954;BME280;67151;52.544;6.034;2023-10-09T00:38:36;101870;;;23;51
77954;BME280;67151;52.544;6.034;2023-10-09T00:38:51;101880;;;23;51
77954;BME280;67151;52.544;6.034;2023-10-09T00:39:06;101870;;;23;50.9
77954;BME280;67151;52.544;6.034;2023-10-09T00:39:21;101870;;;23.1;50.9
77954;BME280;67151;52.544;6.034;2023-10-09T00:39:36;101870;;;23.1;50.9
77954;BME280;67151;52.544;6.034;2023-10-09T00:39:51;101870;;;23;51
77954;BME280;67151;52.544;6.034;2023-10-09T00:40:06;101860;;;23;51.3
77954;BME280;67151;52.544;6.034;2023-10-09T00:40:21;101870;;;23;51
77954;BME280;67151;52.544;6.034;2023-10-09T00:40:36;101860;;;23.1;51
77954;BME280;67151;52.544;6.034;2023-10-09T00:40:51;101870;;;23;51
77954;BME280;67151;52.544;6.034;2023-10-09T00:41:06;101870;;;23;51
77954;BME280;67151;52.544;6.034;2023-10-09T00:41:21;101870;;;23;50.9
77954;BME280;67151;52.544;6.034;2023-10-09T00:41:36;101860;;;23.1;50.9
77954;BME280;67151;52.544;6.034;2023-10-09T00:41:51;101870;;;23.1;50.9
77954;BME280;67151;52.544;6.034;2023-10-09T00:42:06;101870;;;23;51
77954;BME280;67151;52.544;6.034;2023-10-09T00:42:21;101860;;;23;50.9
77954;BME280;67151;52.544;6.034;2023-10-09T00:42:36;101870;;;23;51
77954;BME280;67151;52.544;6.034;2023-10-09T00:42:51;101870;;;23;50.9
77954;BME280;67151;52.544;6.034;2023-10-09T00:43:06;101880;;;23.1;50.9
77954;BME280;67151;52.544;6.034;2023-10-09T00:43:21;101860;;;23;50.9
77954;BME280;67151;52.544;6.034;2023-10-09T00:43:36;101870;;;23;50.9
77954;BME280;67151;52.544;6.034;2023-10-09T00:43:51;101870;;;23.1;50.9
77954;BME280;67151;52.544;6.034;2023-10-09T00:44:06;101870;;;23.1;50.9
77954;BME280;67151;52.544;6.034;2023-10-09T00:44:21;101860;;;23;50.9
77954;BME280;67151;52.544;6.034;2023-10-09T00:44:36;101870;;;23;50.9
77954;BME280;67151;52.544;6.034;2023-10-09T00:44:51;101870;;;23;50.9
77954;BME280;67151;52.544;6.034;2023-10-09T00:45:06;101860;;;23.1;50.9
77954;BME280;67151;52.544;6.034;2023-10-09T00:45:21;101870;;;23.1;50.8
77954;BME280;67151;52.544;6.034;2023-10-09T00:45:36;101860;;;23.1;50.9
77954;BME280;67151;52.544;6.034;2023-10-09T00:45:51;101870;;;23;50.9
77954;BME280;67151;52.544;6.034;2023-10-09T00:46:06;101860;;;23.1;50.9
77954;BME280;67151;52.544;6.034;2023-10-09T00:46:21;101870;;;23.1;50.9
77954;BME280;67151;52.544;6.034;2023-10-09T00:46:36;101860;;;23;50.9
77954;BME280;67151;52.544;6.034;2023-10-09T00:46:51;101860;;;23;50.9
77954;BME280;67151;52.544;6.034;2023-10-09T00:47:06;101860;;;23.1;50.9
77954;BME280;67151;52.544;6.034;2023-10-09T00:47:21;101870;;;23.1;50.9
77954;BME280;67151;52.544;6.034;2023-10-09T00:47:36;101870;;;23;51.2
77954;BME280;67151;52.544;6.034;2023-10-09T00:47:51;101870;;;23;51.2
77954;BME280;67151;52.544;6.034;2023-10-09T00:48:06;101870;;;23;51.4
77954;BME280;67151;52.544;6.034;2023-10-09T00:48:21;101860;;;23;51.2
77954;BME280;67151;52.544;6.034;2023-10-09T00:48:36;101870;;;23.1;51
77954;BME280;67151;52.544;6.034;2023-10-09T00:48:52;101860;;;23;51
77954;BME280;67151;52.544;6.034;2023-10-09T00:49:06;101870;;;23;51
77954;BME280;67151;52.544;6.034;2023-10-09T00:49:21;101870;;;23;50.9
77954;BME280;67151;52.544;6.034;2023-10-09T00:49:36;101860;;;23;50.9
77954;BME280;67151;52.544;6.034;2023-10-09T00:49:52;101860;;;23.1;50.9
77954;BME280;67151;52.544;6.034;2023-10-09T00:50:06;101860;;;23.1;51
77954;BME280;67151;52.544;6.034;2023-10-09T00:50:21;101870;;;23.1;50.9
77954;BME280;67151;52.544;6.034;2023-10-09T00:50:36;101860;;;23.1;50.9
77954;BME280;67151;52.544;6.034;2023-10-09T00:50:51;101860;;;23.1;50.8
77954;BME280;67151;52.544;6.034;2023-10-09T00:51:06;101870;;;23.1;50.9
77954;BME280;67151;52.544;6.034;2023-10-09T00:51:21;101870;;;23;50.9
77954;BME280;67151;52.544;6.034;2023-10-09T00:51:36;101870;;;23;50.9
77954;BME280;67151;52.544;6.034;2023-10-09T00:51:51;101870;;;23;50.9
77954;BME280;67151;52.544;6.034;2023-10-09T00:52:06;101870;;;23;50.9
77954;BME280;67151;52.544;6.034;2023-10-09T00:52:21;101880;;;23;51
77954;BME280;67151;52.544;6.034;2023-10-09T00:52:36;101870;;;23;51
77954;BME280;67151;52.544;6.034;2023-10-09T00:52:51;101860;;;23;51
77954;BME280;67151;52.544;6.034;2023-10-09T00:53:06;101870;;;23;51
77954;BME280;67151;52.544;6.034;2023-10-09T00:53:21;101870;;;23.1;50.9
77954;BME280;67151;52.544;6.034;2023-10-09T00:53:36;101860;;;23;50.9
77954;BME280;67151;52.544;6.034;2023-10-09T00:53:51;101860;;;23.1;50.8
77954;BME280;67151;52.544;6.034;2023-10-09T00:54:06;101870;;;23;50.9
77954;BME280;67151;52.544;6.034;2023-10-09T00:54:21;101870;;;23.1;50.8
77954;BME280;67151;52.544;6.034;2023-10-09T00:54:36;101860;;;23.1;50.9
77954;BME280;67151;52.544;6.034;2023-10-09T00:54:51;101860;;;23;50.9
77954;BME280;67151;52.544;6.034;2023-10-09T00:55:06;101860;;;23.1;50.9
77954;BME280;67151;52.544;6.034;2023-10-09T00:55:21;101860;;;23.1;50.9
77954;BME280;67151;52.544;6.034;2023-10-09T00:55:36;101860;;;23.1;50.8
77954;BME280;67151;52.544;6.034;2023-10-09T00:55:51;101860;;;23.1;50.8
77954;BME280;67151;52.544;6.034;2023-10-09T00:56:06;101860;;;23.1;51
77954;BME280;67151;52.544;6.034;2023-10-09T00:56:21;101850;;;23.1;50.9
77954;BME280;67151;52.544;6.034;2023-10-09T00:56:36;101860;;;23;51
77954;BME280;67151;52.544;6.034;2023-10-09T00:56:51;101860;;;23.1;50.9
77954;BME280;67151;52.544;6.034;2023-10-09T00:57:06;101850;;;23.1;50.9
77954;BME280;67151;52.544;6.034;2023-10-09T00:57:21;101860;;;23.1;50.9
77954;BME280;67151;52.544;6.034;2023-10-09T00:57:36;101860;;;23;51.2
77954;BME280;67151;52.544;6.034;2023-10-09T00:57:51;101860;;;23;50.9
77954;BME280;67151;52.544;6.034;2023-10-09T00:58:06;101850;;;23;50.9
77954;BME280;67151;52.544;6.034;2023-10-09T00:58:21;101860;;;23;51.3
77954;BME280;67151;52.544;6.034;2023-10-09T00:58:36;101850;;;23;50.9
77954;BME280;67151;52.544;6.034;2023-10-09T00:58:51;101850;;;23;50.9
77954;BME280;67151;52.544;6.034;2023-10-09T00:59:06;101850;;;23;50.9
77954;BME280;67151;52.544;6.034;2023-10-09T00:59:21;101850;;;23;50.9
77954;BME280;67151;52.544;6.034;2023-10-09T00:59:36;101850;;;23;51
77954;BME280;67151;52.544;6.034;2023-10-09T00:59:52;101840;;;23;51.4
77954;BME280;67151;52.544;6.034;2023-10-09T01:00:06;101850;;;23;51
77954;BME280;67151;52.544;6.034;2023-10-09T01:00:21;101840;;;23;50.9
77954;BME280;67151;52.544;6.034;2023-10-09T01:00:36;101850;;;23;51
77954;BME280;67151;52.544;6.034;2023-10-09T01:00:51;101850;;;23;51
77954;BME280;67151;52.544;6.034;2023-10-09T01:01:06;101850;;;23;50.9
77954;BME280;67151;52.544;6.034;2023-10-09T01:01:21;101840;;;23;50.9
77954;BME280;67151;52.544;6.034;2023-10-09T01:01:36;101850;;;23;50.9
77954;BME280;67151;52.544;6.034;2023-10-09T01:01:51;101840;;;23;51.2
77954;BME280;67151;52.544;6.034;2023-10-09T01:02:06;101840;;;23;51.1
77954;BME280;67151;52.544;6.034;2023-10-09T01:02:21;101840;;;23;51.4
77954;BME280;67151;52.544;6.034;2023-10-09T01:02:36;101840;;;23;51
77954;BME280;67151;52.544;6.034;2023-10-09T01:02:51;101840;;;23;50.9
77954;BME280;67151;52.544;6.034;2023-10-09T01:03:06;101830;;;23;51
77954;BME280;67151;52.544;6.034;2023-10-09T01:03:21;101840;;;23.1;50.9
77954;BME280;67151;52.544;6.034;2023-10-09T01:03:36;101830;;;23;50.9
77954;BME280;67151;52.544;6.034;2023-10-09T01:03:51;101830;;;23;50.8
77954;BME280;67151;52.544;6.034;2023-10-09T01:04:06;101830;;;23.1;50.8
77954;BME280;67151;52.544;6.034;2023-10-09T01:04:21;101830;;;23;50.9
77954;BME280;67151;52.544;6.034;2023-10-09T01:04:36;101830;;;23;50.9
77954;BME280;67151;52.544;6.034;2023-10-09T01:04:51;101830;;;23;51
77954;BME280;67151;52.544;6.034;2023-10-09T01:05:06;101820;;;23;51
77954;BME280;67151;52.544;6.034;2023-10-09T01:05:21;101830;;;23;51.3
77954;BME280;67151;52.544;6.034;2023-10-09T01:05:36;101830;;;23;51.4
77954;BME280;67151;52.544;6.034;2023-10-09T01:05:51;101830;;;23;51.2
77954;BME280;67151;52.544;6.034;2023-10-09T01:06:06;101820;;;23;51.1
77954;BME280;67151;52.544;6.034;2023-10-09T01:06:21;101830;;;23;51
77954;BME280;67151;52.544;6.034;2023-10-09T01:06:36;101820;;;23;50.9
77954;BME280;67151;52.544;6.034;2023-10-09T01:06:51;101830;;;23;51
77954;BME280;67151;52.544;6.034;2023-10-09T01:07:06;101820;;;23;51
77954;BME280;67151;52.544;6.034;2023-10-09T01:07:21;101820;;;23;51
77954;BME280;67151;52.544;6.034;2023-10-09T01:07:36;101820;;;23;51
77954;BME280;67151;52.544;6.034;2023-10-09T01:07:51;101820;;;23;51
77954;BME280;67151;52.544;6.034;2023-10-09T01:08:06;101820;;;23;51
77954;BME280;67151;52.544;6.034;2023-10-09T01:08:21;101820;;;23;50.9
77954;BME280;67151;52.544;6.034;2023-10-09T01:08:37;101820;;;23;51
77954;BME280;67151;52.544;6.034;2023-10-09T01:08:51;101820;;;23;51.1
77954;BME280;67151;52.544;6.034;2023-10-09T01:09:06;101820;;;23;51
77954;BME280;67151;52.544;6.034;2023-10-09T01:09:21;101820;;;23;51.3
77954;BME280;67151;52.544;6.034;2023-10-09T01:09:36;101820;;;23;51
77954;BME280;67151;52.544;6.034;2023-10-09T01:09:51;101820;;;23;50.9
77954;BME280;67151;52.544;6.034;2023-10-09T01:10:06;101810;;;23;50.9
77954;BME280;67151;52.544;6.034;2023-10-09T01:10:21;101820;;;23;50.9
77954;BME280;67151;52.544;6.034;2023-10-09T01:10:43;101820;;;23;50.9
77954;BME280;67151;52.544;6.034;2023-10-09T01:10:51;101820;;;23;50.9
77954;BME280;67151;52.544;6.034;2023-10-09T01:11:06;101820;;;23;50.9
77954;BME280;67151;52.544;6.034;2023-10-09T01:11:21;101820;;;23;51
77954;BME280;67151;52.544;6.034;2023-10-09T01:11:36;101820;;;23;51
77954;BME280;67151;52.544;6.034;2023-10-09T01:11:51;101820;;;23;50.9
77954;BME280;67151;52.544;6.034;2023-10-09T01:12:06;101820;;;23;51
77954;BME280;67151;52.544;6.034;2023-10-09T01:12:21;101820;;;23;50.9
77954;BME280;67151;52.544;6.034;2023-10-09T01:12:36;101820;;;23;50.9
77954;BME280;67151;52.544;6.034;2023-10-09T01:12:51;101820;;;23;50.9
77954;BME280;67151;52.544;6.034;2023-10-09T01:13:06;101810;;;23;50.9
77954;BME280;67151;52.544;6.034;2023-10-09T01:13:21;101820;;;23;50.9
77954;BME280;67151;52.544;6.034;2023-10-09T01:13:36;101830;;;23;50.9
77954;BME280;67151;52.544;6.034;2023-10-09T01:13:51;101830;;;23;51.7
77954;BME280;67151;52.544;6.034;2023-10-09T01:14:06;101820;;;23;51.3
77954;BME280;67151;52.544;6.034;2023-10-09T01:14:21;101830;;;23;51.1
77954;BME280;67151;52.544;6.034;2023-10-09T01:14:36;101830;;;23;51
77954;BME280;67151;52.544;6.034;2023-10-09T01:14:51;101820;;;23;51.1
77954;BME280;67151;52.544;6.034;2023-10-09T01:15:06;101820;;;23;51.1
77954;BME280;67151;52.544;6.034;2023-10-09T01:15:21;101830;;;23;51
77954;BME280;67151;52.544;6.034;2023-10-09T01:15:36;101830;;;23;51
77954;BME280;67151;52.544;6.034;2023-10-09T01:15:51;101820;;;23;51
77954;BME280;67151;52.544;6.034;2023-10-09T01:16:06;101820;;;23;51
77954;BME280;67151;52.544;6.034;2023-10-09T01:16:21;101830;;;23;51
77954;BME280;67151;52.544;6.034;2023-10-09T01:16:36;101830;;;23;51.1
77954;BME280;67151;52.544;6.034;2023-10-09T01:16:51;101830;;;23;51
77954;BME280;67151;52.544;6.034;2023-10-09T01:17:06;101830;;;23;51
77954;BME280;67151;52.544;6.034;2023-10-09T01:17:21;101830;;;23;51
77954;BME280;67151;52.544;6.034;2023-10-09T01:17:36;101830;;;23;50.9
77954;BME280;67151;52.544;6.034;2023-10-09T01:17:51;101830;;;23;50.9
77954;BME280;67151;52.544;6.034;2023-10-09T01:18:06;101820;;;23;51
77954;BME280;67151;52.544;6.034;2023-10-09T01:18:21;101830;;;23;50.9
77954;BME280;67151;52.544;6.034;2023-10-09T01:18:36;101830;;;23;51
77954;BME280;67151;52.544;6.034;2023-10-09T01:18:51;101820;;;23;50.9
77954;BME280;67151;52.544;6.034;2023-10-09T01:19:06;101820;;;23;51
77954;BME280;67151;52.544;6.034;2023-10-09T01:19:21;101820;;;23;50.9
77954;BME280;67151;52.544;6.034;2023-10-09T01:19:36;101830;;;23;51
77954;BME280;67151;52.544;6.034;2023-10-09T01:19:51;101830;;;23;51.1
77954;BME280;67151;52.544;6.034;2023-10-09T01:20:06;101820;;;23;51
77954;BME280;67151;52.544;6.034;2023-10-09T01:20:22;101820;;;23;51
77954;BME280;67151;52.544;6.034;2023-10-09T01:20:36;101830;;;23;50.9
77954;BME280;67151;52.544;6.034;2023-10-09T01:20:51;101820;;;23;50.9
77954;BME280;67151;52.544;6.034;2023-10-09T01:21:06;101820;;;23;50.9
77954;BME280;67151;52.544;6.034;2023-10-09T01:21:21;101820;;;23;51
77954;BME280;67151;52.544;6.034;2023-10-09T01:21:36;101820;;;23;50.9
77954;BME280;67151;52.544;6.034;2023-10-09T01:21:51;101820;;;23;51.2
77954;BME280;67151;52.544;6.034;2023-10-09T01:22:06;101820;;;23;51.1
77954;BME280;67151;52.544;6.034;2023-10-09T01:22:21;101820;;;23;51
77954;BME280;67151;52.544;6.034;2023-10-09T01:22:36;101820;;;23;51
77954;BME280;67151;52.544;6.034;2023-10-09T01:22:51;101820;;;23;51
77954;BME280;67151;52.544;6.034;2023-10-09T01:23:06;101820;;;23;50.9
77954;BME280;67151;52.544;6.034;2023-10-09T01:23:21;101820;;;23;51
77954;BME280;67151;52.544;6.034;2023-10-09T01:23:36;101820;;;23;50.9
77954;BME280;67151;52.544;6.034;2023-10-09T01:23:51;101820;;;23;50.9
77954;BME280;67151;52.544;6.034;2023-10-09T01:24:06;101810;;;23;50.9
77954;BME280;67151;52.544;6.034;2023-10-09T01:24:21;101810;;;23;50.9
77954;BME280;67151;52.544;6.034;2023-10-09T01:24:36;101810;;;23;51.3
77954;BME280;67151;52.544;6.034;2023-10-09T01:24:51;101810;;;23;51.1
77954;BME280;67151;52.544;6.034;2023-10-09T01:25:06;101810;;;23;51
77954;BME280;67151;52.544;6.034;2023-10-09T01:25:21;101810;;;23;50.9
77954;BME280;67151;52.544;6.034;2023-10-09T01:25:36;101810;;;23;50.9
77954;BME280;67151;52.544;6.034;2023-10-09T01:25:51;101810;;;23;50.9
77954;BME280;67151;52.544;6.034;2023-10-09T01:26:06;101810;;;23;50.9
77954;BME280;67151;52.544;6.034;2023-10-09T01:26:21;101800;;;23;51.1